Time;durP1;ratioP1;P1;durP2;ratioP2;P2;SDS_P1;SDS_P2;PMS_P1;PMS_P2;Temp;Humidity;BMP_temperature;BMP_pressure;BME280_temperature;BME280_humidity;BME280_pressure;Samples;Min_cycle;Max_cycle;Signal;HPM_P1;HPM_P2
2022/01/18 00:01:50;;;;;;;26.70;19.50;;;;;;;;;;5097118;28;20179;-69
2022/01/18 00:04:16;;;;;;;30.25;18.25;;;;;;;;;;5096971;28;20216;-68
2022/01/18 00:06:47;;;;;;;25.60;18.58;;;;;;;;;;5096796;28;20640;-68
2022/01/18 00:09:13;;;;;;;23.42;16.80;;;;;;;;;;5096935;28;20194;-69
2022/01/18 00:11:45;;;;;;;25.27;16.53;;;;;;;;;;5096633;28;20662;-68
2022/01/18 00:14:24;;;;;;;27.00;16.90;;;;;;;;;;5096552;28;20367;-68
2022/01/18 00:17:19;;;;;;;25.27;17.75;;;;;;;;;;5096236;28;20700;-68
2022/01/18 00:19:56;;;;;;;25.52;17.77;;;;;;;;;;5096652;28;20642;-70
2022/01/18 00:22:24;;;;;;;27.38;18.10;;;;;;;;;;5096529;28;20171;-70
2022/01/18 00:24:51;;;;;;;22.75;17.63;;;;;;;;;;5096465;28;20171;-69
2022/01/18 00:27:18;;;;;;;26.50;17.92;;;;;;;;;;5096529;28;20167;-70
2022/01/18 00:30:04;;;;;;;27.73;18.15;;;;;;;;;;5096372;28;20155;-69
2022/01/18 00:34:57;;;;;;;25.53;18.50;;;;;;;;;;5096380;28;20173;-68
2022/01/18 00:37:33;;;;;;;24.85;18.63;;;;;;;;;;5096388;28;20423;-69
2022/01/18 00:39:59;;;;;;;19.58;16.25;;;;;;;;;;5095129;28;20202;-69
2022/01/18 00:42:25;;;;;;;25.23;17.20;;;;;;;;;;5096460;28;20207;-69
2022/01/18 00:44:51;;;;;;;24.53;16.80;;;;;;;;;;5096094;28;20202;-69
2022/01/18 00:47:17;;;;;;;23.45;16.60;;;;;;;;;;5096053;28;20405;-69
2022/01/18 00:49:46;;;;;;;29.23;18.40;;;;;;;;;;5096293;28;20576;-69
2022/01/18 00:52:14;;;;;;;23.75;17.65;;;;;;;;;;5095901;28;20203;-69
2022/01/18 00:54:44;;;;;;;29.25;18.23;;;;;;;;;;5095912;28;20220;-68
2022/01/18 00:57:10;;;;;;;27.20;19.92;;;;;;;;;;5095871;28;20171;-69
2022/01/18 00:59:39;;;;;;;24.60;18.08;;;;;;;;;;5096050;28;20515;-69
2022/01/18 01:02:05;;;;;;;28.02;18.52;;;;;;;;;;5095756;28;20232;-68
2022/01/18 01:04:36;;;;;;;29.58;19.80;;;;;;;;;;5095721;28;20171;-69
2022/01/18 01:07:02;;;;;;;20.10;17.35;;;;;;;;;;5095646;28;20163;-69
2022/01/18 01:09:28;;;;;;;25.90;19.03;;;;;;;;;;5095743;28;20254;-68
2022/01/18 01:11:54;;;;;;;26.07;18.40;;;;;;;;;;5095481;28;20831;-69
2022/01/18 01:14:23;;;;;;;23.33;16.85;;;;;;;;;;5095741;28;20406;-69
2022/01/18 01:44:47;;;;;;;24.88;17.60;;;;;;;;;;5095188;28;20194;-69
2022/01/18 01:47:17;;;;;;;21.33;15.95;;;;;;;;;;5095188;28;20167;-69
2022/01/18 01:49:44;;;;;;;20.13;15.98;;;;;;;;;;5094864;28;20155;-69
2022/01/18 01:52:11;;;;;;;19.42;15.50;;;;;;;;;;5095038;28;20207;-69
2022/01/18 01:54:38;;;;;;;21.40;16.38;;;;;;;;;;5094813;28;20619;-69
2022/01/18 01:57:04;;;;;;;19.77;16.00;;;;;;;;;;5094762;28;20175;-69
2022/01/18 01:59:30;;;;;;;19.88;15.40;;;;;;;;;;5094754;28;20163;-70
2022/01/18 02:01:56;;;;;;;18.50;15.73;;;;;;;;;;5094697;28;20178;-70
2022/01/18 02:04:22;;;;;;;19.77;15.40;;;;;;;;;;5094634;28;20237;-70
2022/01/18 02:06:48;;;;;;;17.03;14.27;;;;;;;;;;5094596;28;20171;-70
2022/01/18 02:09:14;;;;;;;17.40;15.10;;;;;;;;;;5094522;28;20375;-70
2022/01/18 02:11:41;;;;;;;22.25;15.35;;;;;;;;;;5094432;28;20577;-70
2022/01/18 02:14:12;;;;;;;18.42;16.00;;;;;;;;;;5094412;28;20163;-70
2022/01/18 02:22:10;;;;;;;18.98;14.57;;;;;;;;;;5094322;28;20170;-70
2022/01/18 02:24:36;;;;;;;16.90;13.80;;;;;;;;;;5094304;28;20159;-69
2022/01/18 02:27:02;;;;;;;16.60;13.90;;;;;;;;;;5094267;28;20454;-70
2022/01/18 02:29:28;;;;;;;18.02;13.90;;;;;;;;;;5094135;28;20410;-70
2022/01/18 02:31:54;;;;;;;16.80;13.75;;;;;;;;;;5094147;28;20339;-70
2022/01/18 02:34:21;;;;;;;17.55;14.15;;;;;;;;;;5094056;28;20163;-70
2022/01/18 02:36:47;;;;;;;14.80;13.18;;;;;;;;;;5094305;28;20191;-69
2022/01/18 02:39:13;;;;;;;17.13;14.52;;;;;;;;;;5094016;28;20163;-70
2022/01/18 02:41:40;;;;;;;15.85;13.27;;;;;;;;;;5093954;28;20532;-69
2022/01/18 02:44:07;;;;;;;16.40;13.95;;;;;;;;;;5093948;28;20171;-70
2022/01/18 02:46:33;;;;;;;17.08;13.02;;;;;;;;;;5093841;28;20258;-69
2022/01/18 02:49:03;;;;;;;15.00;12.48;;;;;;;;;;5093690;28;20174;-69
2022/01/18 02:51:29;;;;;;;13.98;12.50;;;;;;;;;;5093638;28;20260;-68
2022/01/18 02:54:00;;;;;;;16.58;12.88;;;;;;;;;;5093792;28;20657;-69
2022/01/18 02:56:28;;;;;;;14.43;12.48;;;;;;;;;;5093744;28;20182;-68
2022/01/18 02:59:11;;;;;;;17.60;12.80;;;;;;;;;;5093937;28;20171;-69
2022/01/18 03:04:22;;;;;;;15.27;13.13;;;;;;;;;;5093728;28;20178;-68
2022/01/18 03:06:48;;;;;;;14.27;12.10;;;;;;;;;;5093600;28;20163;-68
2022/01/18 03:09:14;;;;;;;13.67;11.33;;;;;;;;;;5093571;28;20398;-69
2022/01/18 03:11:40;;;;;;;14.70;11.98;;;;;;;;;;5093744;28;20476;-68
2022/01/18 03:14:06;;;;;;;15.43;13.30;;;;;;;;;;5093541;28;20163;-69
2022/01/18 03:16:32;;;;;;;13.95;12.48;;;;;;;;;;5093525;28;20454;-69
2022/01/18 03:18:58;;;;;;;13.27;11.98;;;;;;;;;;5093427;28;20226;-70
2022/01/18 03:21:24;;;;;;;12.90;11.50;;;;;;;;;;5093494;28;20170;-69
2022/01/18 03:23:54;;;;;;;14.50;11.67;;;;;;;;;;5093519;28;20405;-71
2022/01/18 03:26:30;;;;;;;12.80;11.57;;;;;;;;;;5093397;28;20373;-70
2022/01/18 03:28:56;;;;;;;15.48;12.00;;;;;;;;;;5093438;28;20675;-70
2022/01/18 03:31:22;;;;;;;17.73;12.07;;;;;;;;;;5093249;28;20210;-70
2022/01/18 03:33:48;;;;;;;13.93;12.43;;;;;;;;;;5093621;28;20429;-70
2022/01/18 03:36:14;;;;;;;13.87;11.57;;;;;;;;;;5093284;28;20398;-70
2022/01/18 03:38:40;;;;;;;14.27;12.10;;;;;;;;;;5093275;28;20554;-69
2022/01/18 03:41:06;;;;;;;13.03;11.73;;;;;;;;;;5093294;28;20397;-70
2022/01/18 03:43:38;;;;;;;15.13;11.60;;;;;;;;;;5093151;28;20402;-69
2022/01/18 03:46:05;;;;;;;15.07;12.13;;;;;;;;;;5093221;28;20925;-69
2022/01/18 03:50:58;;;;;;;12.05;10.85;;;;;;;;;;5093453;28;20206;-69
2022/01/18 03:53:24;;;;;;;13.20;11.00;;;;;;;;;;5093538;28;20298;-70
2022/01/18 03:55:50;;;;;;;13.32;11.25;;;;;;;;;;5093254;28;20221;-69
2022/01/18 03:58:16;;;;;;;14.85;10.75;;;;;;;;;;5093141;28;20619;-70
2022/01/18 04:00:42;;;;;;;15.05;11.75;;;;;;;;;;5094271;28;20178;-69
2022/01/18 04:03:09;;;;;;;12.02;10.77;;;;;;;;;;5095609;28;20179;-70
2022/01/18 04:05:35;;;;;;;13.23;11.45;;;;;;;;;;5096896;28;20244;-69
2022/01/18 04:08:01;;;;;;;12.00;10.77;;;;;;;;;;5096909;28;20159;-69
2022/01/18 04:10:27;;;;;;;12.03;9.90;;;;;;;;;;5096798;28;20267;-69
2022/01/18 04:12:55;;;;;;;12.55;10.70;;;;;;;;;;5096831;28;20444;-69
2022/01/18 04:15:21;;;;;;;12.05;10.88;;;;;;;;;;5096711;28;20163;-70
2022/01/18 04:28:43;;;;;;;11.35;9.98;;;;;;;;;;5096478;28;20532;-69
2022/01/18 04:31:10;;;;;;;14.50;11.73;;;;;;;;;;5096363;28;20290;-69
2022/01/18 04:33:37;;;;;;;13.98;12.18;;;;;;;;;;5096634;28;20510;-69
2022/01/18 04:36:04;;;;;;;12.40;11.10;;;;;;;;;;5096363;28;20173;-69
2022/01/18 04:38:30;;;;;;;13.30;11.82;;;;;;;;;;5096221;28;20163;-69
2022/01/18 04:41:04;;;;;;;13.80;11.57;;;;;;;;;;5096339;28;20253;-70
2022/01/18 04:48:49;;;;;;;16.88;13.43;;;;;;;;;;5096184;28;20166;-68
2022/01/18 04:51:15;;;;;;;15.10;13.50;;;;;;;;;;5096308;28;20207;-68
2022/01/18 04:53:50;;;;;;;18.53;13.97;;;;;;;;;;5096064;28;20400;-71
2022/01/18 04:56:19;;;;;;;22.10;14.60;;;;;;;;;;5096001;28;20364;-69
2022/01/18 04:58:45;;;;;;;16.98;14.48;;;;;;;;;;5095910;28;20167;-69
2022/01/18 05:01:12;;;;;;;18.90;14.02;;;;;;;;;;5095796;28;20182;-70
2022/01/18 05:03:41;;;;;;;16.75;14.07;;;;;;;;;;5096048;28;20570;-69
2022/01/18 05:06:09;;;;;;;19.55;14.02;;;;;;;;;;5095673;28;20172;-69
2022/01/18 05:08:36;;;;;;;19.08;13.95;;;;;;;;;;5096083;28;20253;-70
2022/01/18 05:11:02;;;;;;;15.50;13.43;;;;;;;;;;5095476;28;20202;-68
2022/01/18 05:21:19;;;;;;;21.43;15.10;;;;;;;;;;5095792;28;20171;-69
2022/01/18 05:23:45;;;;;;;19.58;15.70;;;;;;;;;;5095472;28;20385;-69
2022/01/18 05:26:11;;;;;;;22.37;16.43;;;;;;;;;;5095325;28;20167;-69
2022/01/18 05:28:37;;;;;;;24.83;18.17;;;;;;;;;;5095293;28;20372;-69
2022/01/18 05:31:03;;;;;;;25.85;19.33;;;;;;;;;;5095103;28;20559;-68
2022/01/18 05:33:29;;;;;;;31.33;21.07;;;;;;;;;;5095217;28;20593;-69
2022/01/18 05:35:55;;;;;;;26.40;20.80;;;;;;;;;;5095211;28;20387;-68
2022/01/18 05:38:21;;;;;;;34.72;22.20;;;;;;;;;;5095150;28;20398;-69
2022/01/18 05:40:47;;;;;;;28.70;20.80;;;;;;;;;;5095119;28;20163;-69
2022/01/18 05:43:13;;;;;;;28.75;21.83;;;;;;;;;;5095301;28;20535;-70
2022/01/18 05:45:39;;;;;;;33.03;23.23;;;;;;;;;;5094967;28;20171;-68
2022/01/18 05:48:06;;;;;;;30.73;21.48;;;;;;;;;;5094962;28;20413;-69
2022/01/18 05:50:32;;;;;;;36.65;26.60;;;;;;;;;;5093512;28;20206;-70
2022/01/18 05:52:58;;;;;;;31.10;22.13;;;;;;;;;;5095145;28;20271;-68
2022/01/18 05:55:24;;;;;;;31.17;22.73;;;;;;;;;;5095212;28;20209;-68
2022/01/18 05:57:50;;;;;;;41.00;24.93;;;;;;;;;;5095162;28;20401;-68
2022/01/18 06:00:22;;;;;;;42.40;27.70;;;;;;;;;;5095229;28;20481;-68
2022/01/18 06:03:01;;;;;;;45.40;27.00;;;;;;;;;;5095362;28;20462;-68
2022/01/18 06:08:12;;;;;;;37.33;25.55;;;;;;;;;;5094868;28;20206;-68
2022/01/18 06:10:38;;;;;;;55.60;30.50;;;;;;;;;;5094504;28;20661;-68
2022/01/18 06:13:07;;;;;;;41.08;28.45;;;;;;;;;;5094580;28;20171;-68
2022/01/18 06:15:33;;;;;;;46.10;29.77;;;;;;;;;;5094369;28;20156;-68
2022/01/18 06:17:59;;;;;;;56.65;33.70;;;;;;;;;;5094193;28;20230;-69
2022/01/18 06:20:25;;;;;;;58.37;32.57;;;;;;;;;;5094271;28;20248;-69
2022/01/18 06:22:51;;;;;;;61.63;35.78;;;;;;;;;;5094169;28;20406;-69
2022/01/18 06:25:18;;;;;;;69.20;33.65;;;;;;;;;;5093955;28;20525;-68
2022/01/18 06:27:44;;;;;;;115.50;39.92;;;;;;;;;;5094106;28;20163;-68
2022/01/18 06:30:10;;;;;;;104.45;39.33;;;;;;;;;;5093974;28;20159;-68
2022/01/18 06:32:40;;;;;;;79.68;37.80;;;;;;;;;;5093989;28;20175;-68
2022/01/18 06:35:07;;;;;;;97.72;40.70;;;;;;;;;;5093950;28;20592;-68
2022/01/18 06:37:33;;;;;;;64.72;35.70;;;;;;;;;;5093932;28;20167;-69
2022/01/18 06:40:01;;;;;;;60.15;35.28;;;;;;;;;;5093791;28;20171;-68
2022/01/18 06:42:27;;;;;;;113.40;39.92;;;;;;;;;;5093731;28;20614;-68
2022/01/18 06:44:53;;;;;;;78.38;36.72;;;;;;;;;;5093796;28;20178;-69
2022/01/18 06:47:19;;;;;;;62.53;36.80;;;;;;;;;;5093643;28;20168;-68
2022/01/18 06:49:46;;;;;;;193.57;44.15;;;;;;;;;;5093663;28;20179;-68
2022/01/18 06:52:12;;;;;;;84.28;38.58;;;;;;;;;;5093477;28;20222;-68
2022/01/18 06:54:38;;;;;;;79.70;37.00;;;;;;;;;;5093583;28;20610;-68
2022/01/18 06:57:04;;;;;;;65.78;34.70;;;;;;;;;;5093579;28;20193;-69
2022/01/18 06:59:30;;;;;;;134.98;38.60;;;;;;;;;;5093827;28;20606;-68
2022/01/18 07:01:56;;;;;;;79.03;34.67;;;;;;;;;;5093459;28;20163;-68
2022/01/18 07:04:23;;;;;;;258.85;45.90;;;;;;;;;;5093411;28;20220;-68
2022/01/18 07:06:49;;;;;;;247.40;47.63;;;;;;;;;;5093427;28;20175;-67
2022/01/18 07:09:15;;;;;;;263.75;45.35;;;;;;;;;;5093497;28;20201;-68
2022/01/18 07:11:42;;;;;;;218.75;47.67;;;;;;;;;;5093689;28;20207;-68
2022/01/18 07:14:08;;;;;;;118.32;39.60;;;;;;;;;;5093356;28;20304;-68
2022/01/18 07:16:34;;;;;;;174.20;41.88;;;;;;;;;;5093434;28;20188;-68
2022/01/18 07:19:00;;;;;;;102.47;39.80;;;;;;;;;;5093256;28;20290;-67
2022/01/18 07:21:26;;;;;;;79.47;39.13;;;;;;;;;;5093347;28;20400;-67
2022/01/18 07:24:02;;;;;;;80.13;38.35;;;;;;;;;;5093122;28;20420;-69
2022/01/18 07:26:28;;;;;;;72.30;36.70;;;;;;;;;;5093257;28;20648;-70
2022/01/18 07:28:54;;;;;;;102.13;40.27;;;;;;;;;;5093353;28;20202;-69
2022/01/18 07:31:23;;;;;;;52.95;31.58;;;;;;;;;;5093116;28;20922;-67
2022/01/18 07:33:49;;;;;;;65.40;35.70;;;;;;;;;;5093162;28;20163;-67
2022/01/18 07:36:15;;;;;;;111.68;39.05;;;;;;;;;;5095347;28;20232;-67
2022/01/18 07:38:41;;;;;;;61.03;35.23;;;;;;;;;;5097503;28;20167;-66
2022/01/18 07:41:07;;;;;;;60.93;34.97;;;;;;;;;;5097196;28;20417;-67
2022/01/18 07:43:37;;;;;;;72.67;36.13;;;;;;;;;;5097228;28;20371;-66
2022/01/18 07:46:03;;;;;;;63.78;35.85;;;;;;;;;;5097156;28;20394;-66
2022/01/18 07:48:30;;;;;;;63.45;34.00;;;;;;;;;;5096957;28;20187;-66
2022/01/18 07:50:58;;;;;;;63.88;34.53;;;;;;;;;;5096889;28;20194;-67
2022/01/18 07:53:24;;;;;;;55.55;32.85;;;;;;;;;;5096993;28;20159;-67
2022/01/18 07:55:50;;;;;;;55.30;33.25;;;;;;;;;;5096861;28;20544;-67
2022/01/18 07:58:16;;;;;;;60.70;33.80;;;;;;;;;;5096906;28;20259;-69
2022/01/18 08:00:42;;;;;;;66.22;34.10;;;;;;;;;;5096887;28;20773;-66
2022/01/18 08:03:09;;;;;;;87.95;36.15;;;;;;;;;;5096842;28;20168;-68
2022/01/18 08:05:35;;;;;;;68.15;34.63;;;;;;;;;;5096822;28;20226;-68
2022/01/18 08:08:02;;;;;;;64.87;32.80;;;;;;;;;;5096974;28;20254;-68
2022/01/18 08:10:30;;;;;;;121.40;33.90;;;;;;;;;;5096801;28;20490;-68
2022/01/18 08:13:01;;;;;;;107.72;34.33;;;;;;;;;;5096647;28;20175;-68
2022/01/18 08:15:29;;;;;;;140.13;36.33;;;;;;;;;;5096552;28;20162;-67
2022/01/18 08:17:55;;;;;;;72.10;35.03;;;;;;;;;;5096437;28;20660;-67
2022/01/18 08:20:22;;;;;;;71.10;34.83;;;;;;;;;;5096524;28;20164;-67
2022/01/18 08:22:48;;;;;;;55.60;30.88;;;;;;;;;;5096483;28;20167;-68
2022/01/18 08:25:15;;;;;;;116.50;29.83;;;;;;;;;;5096352;28;20155;-68
2022/01/18 08:27:42;;;;;;;46.30;29.17;;;;;;;;;;5096713;28;20530;-67
2022/01/18 08:30:09;;;;;;;151.35;33.22;;;;;;;;;;5096565;28;20172;-67
2022/01/18 08:32:35;;;;;;;129.07;32.55;;;;;;;;;;5096296;28;20203;-68
2022/01/18 08:35:02;;;;;;;73.80;31.48;;;;;;;;;;5096329;28;20168;-67
2022/01/18 08:37:28;;;;;;;101.05;51.33;;;;;;;;;;5096282;28;20172;-66
2022/01/18 08:39:54;;;;;;;149.93;30.10;;;;;;;;;;5096278;28;20164;-68
2022/01/18 08:42:20;;;;;;;61.77;26.33;;;;;;;;;;5096250;28;20167;-68
2022/01/18 08:44:46;;;;;;;42.50;25.63;;;;;;;;;;5096127;28;20463;-68
2022/01/18 08:47:13;;;;;;;116.07;27.67;;;;;;;;;;5095665;28;20642;-68
2022/01/18 08:49:39;;;;;;;107.60;25.35;;;;;;;;;;5096271;28;20175;-68
2022/01/18 08:52:06;;;;;;;119.95;28.33;;;;;;;;;;5095828;28;20217;-68
2022/01/18 08:54:32;;;;;;;86.07;27.45;;;;;;;;;;5094613;28;20175;-68
2022/01/18 08:56:58;;;;;;;91.95;26.30;;;;;;;;;;5095942;28;20168;-68
2022/01/18 08:59:24;;;;;;;92.13;30.30;;;;;;;;;;5095928;28;20255;-69
2022/01/18 09:01:50;;;;;;;157.60;109.43;;;;;;;;;;5095794;28;20457;-68
2022/01/18 09:04:17;;;;;;;35.93;24.80;;;;;;;;;;5095848;28;20389;-67
2022/01/18 09:06:46;;;;;;;20.87;18.67;;;;;;;;;;5096074;28;20409;-68
2022/01/18 09:09:15;;;;;;;17.73;15.87;;;;;;;;;;5095745;28;20895;-69
2022/01/18 09:11:41;;;;;;;18.70;16.03;;;;;;;;;;5095479;28;20985;-67
2022/01/18 09:14:07;;;;;;;15.67;14.10;;;;;;;;;;5095584;28;20401;-68
2022/01/18 09:16:33;;;;;;;18.23;14.90;;;;;;;;;;5095566;28;20390;-68
2022/01/18 09:18:59;;;;;;;14.60;13.10;;;;;;;;;;5095245;28;20453;-69
2022/01/18 09:21:26;;;;;;;15.00;13.40;;;;;;;;;;5094164;28;20916;-68
2022/01/18 09:23:53;;;;;;;14.10;12.63;;;;;;;;;;5095396;28;20462;-69
2022/01/18 09:26:19;;;;;;;13.07;11.90;;;;;;;;;;5095330;28;20433;-67
2022/01/18 09:28:45;;;;;;;12.77;11.57;;;;;;;;;;5093964;28;20456;-69
2022/01/18 09:31:11;;;;;;;12.73;11.40;;;;;;;;;;5095151;28;20449;-65
2022/01/18 09:33:37;;;;;;;12.33;11.13;;;;;;;;;;5095166;28;20401;-68
2022/01/18 09:36:03;;;;;;;13.13;11.83;;;;;;;;;;5095095;28;20880;-68
2022/01/18 09:38:29;;;;;;;20.23;11.60;;;;;;;;;;5095094;28;20424;-67
2022/01/18 09:40:56;;;;;;;11.83;10.87;;;;;;;;;;5095086;28;20733;-72
2022/01/18 09:43:22;;;;;;;12.33;11.27;;;;;;;;;;5095050;28;20411;-70
2022/01/18 09:45:48;;;;;;;13.37;12.07;;;;;;;;;;5094771;28;20397;-71
2022/01/18 09:48:15;;;;;;;13.20;11.93;;;;;;;;;;5094908;28;20468;-71
2022/01/18 09:50:42;;;;;;;11.53;10.60;;;;;;;;;;5094753;28;21051;-69
2022/01/18 09:53:10;;;;;;;13.13;11.80;;;;;;;;;;5094985;28;20890;-69
2022/01/18 09:55:36;;;;;;;12.40;11.20;;;;;;;;;;5095105;28;20392;-70
2022/01/18 09:58:06;;;;;;;14.90;13.27;;;;;;;;;;5094082;28;20794;-71
2022/01/18 10:00:32;;;;;;;17.70;15.90;;;;;;;;;;5094817;28;20391;-71
2022/01/18 10:02:59;;;;;;;13.00;11.90;;;;;;;;;;5094803;28;20464;-69
2022/01/18 10:05:29;;;;;;;12.83;11.63;;;;;;;;;;5094926;28;20805;-71
2022/01/18 10:08:00;;;;;;;11.63;10.73;;;;;;;;;;5094662;28;20402;-68
2022/01/18 10:10:40;;;;;;;16.60;10.47;;;;;;;;;;5094468;28;20886;-71
2022/01/18 10:13:07;;;;;;;9.27;8.33;;;;;;;;;;5094497;28;20417;-70
2022/01/18 10:15:34;;;;;;;10.97;10.00;;;;;;;;;;5094375;28;20391;-73
2022/01/18 10:18:07;;;;;;;10.27;9.37;;;;;;;;;;5094266;28;21022;-69
2022/01/18 10:20:47;;;;;;;7.37;7.00;;;;;;;;;;5094293;28;20399;-70
2022/01/18 10:23:23;;;;;;;8.17;7.67;;;;;;;;;;5094220;28;20399;-69
2022/01/18 10:25:49;;;;;;;9.70;8.90;;;;;;;;;;5094311;28;20398;-71
2022/01/18 10:28:27;;;;;;;10.63;9.80;;;;;;;;;;5094111;28;20393;-68
2022/01/18 10:30:54;;;;;;;10.57;9.87;;;;;;;;;;5093986;28;20451;-72
2022/01/18 10:33:27;;;;;;;8.20;7.60;;;;;;;;;;5093913;28;20413;-68
2022/01/18 10:36:10;;;;;;;6.93;6.40;;;;;;;;;;5093970;28;20748;-69
2022/01/18 10:38:37;;;;;;;6.07;5.57;;;;;;;;;;5094111;28;20404;-68
2022/01/18 10:41:22;;;;;;;4.97;4.77;;;;;;;;;;5093952;28;20390;-70
2022/01/18 10:44:04;;;;;;;4.93;4.63;;;;;;;;;;5094044;28;20842;-69
2022/01/18 10:46:36;;;;;;;3.63;3.53;;;;;;;;;;5093812;28;20399;-70
2022/01/18 10:49:02;;;;;;;3.60;3.50;;;;;;;;;;5093897;28;20412;-71
2022/01/18 10:51:29;;;;;;;4.30;4.17;;;;;;;;;;5093742;28;20471;-68
2022/01/18 10:53:59;;;;;;;4.03;3.93;;;;;;;;;;5093744;28;20396;-71
2022/01/18 10:56:25;;;;;;;4.53;4.27;;;;;;;;;;5093679;28;20453;-70
2022/01/18 10:58:57;;;;;;;4.00;3.80;;;;;;;;;;5093747;28;20395;-69
2022/01/18 11:01:24;;;;;;;4.13;3.93;;;;;;;;;;5093713;28;20405;-70
2022/01/18 11:04:10;;;;;;;4.90;4.60;;;;;;;;;;5094014;28;20434;-69
2022/01/18 11:06:36;;;;;;;4.50;4.30;;;;;;;;;;5093753;28;20423;-71
2022/01/18 11:09:13;;;;;;;4.50;4.23;;;;;;;;;;5093552;28;20397;-72
2022/01/18 11:11:42;;;;;;;4.30;3.90;;;;;;;;;;5093581;28;20460;-72
2022/01/18 11:14:09;;;;;;;5.23;4.93;;;;;;;;;;5093538;28;20393;-71
2022/01/18 11:16:41;;;;;;;4.30;4.13;;;;;;;;;;5093621;28;20404;-70
2022/01/18 11:19:16;;;;;;;4.20;4.10;;;;;;;;;;5093408;28;20462;-68
2022/01/18 11:21:42;;;;;;;4.90;4.60;;;;;;;;;;5093796;28;20408;-67
2022/01/18 11:24:09;;;;;;;4.33;3.93;;;;;;;;;;5093534;28;20865;-69
2022/01/18 11:26:38;;;;;;;4.50;4.30;;;;;;;;;;5093543;28;20401;-69
2022/01/18 11:29:05;;;;;;;5.03;4.60;;;;;;;;;;5093475;28;20461;-68
2022/01/18 11:31:31;;;;;;;4.37;4.27;;;;;;;;;;5093584;28;20513;-67
2022/01/18 11:33:59;;;;;;;5.03;4.70;;;;;;;;;;5093489;28;20405;-69
2022/01/18 11:36:27;;;;;;;4.30;4.10;;;;;;;;;;5093364;28;20458;-67
2022/01/18 11:38:56;;;;;;;5.33;4.87;;;;;;;;;;5093666;28;20436;-68
2022/01/18 11:41:25;;;;;;;4.90;4.63;;;;;;;;;;5093354;28;20446;-67
2022/01/18 11:43:52;;;;;;;5.33;4.93;;;;;;;;;;5093382;28;20527;-71
2022/01/18 11:46:26;;;;;;;19.20;17.07;;;;;;;;;;5093313;28;20521;-69
2022/01/18 11:49:07;;;;;;;4.90;4.60;;;;;;;;;;5093295;28;20490;-71
2022/01/18 11:51:39;;;;;;;6.10;5.60;;;;;;;;;;5093239;28;20468;-70
2022/01/18 11:54:32;;;;;;;5.37;5.00;;;;;;;;;;5093284;28;20425;-72
2022/01/18 11:56:59;;;;;;;4.90;4.60;;;;;;;;;;5093194;28;20387;-70
2022/01/18 11:59:26;;;;;;;4.60;4.37;;;;;;;;;;5093444;28;20428;-71
2022/01/18 12:02:03;;;;;;;4.50;4.20;;;;;;;;;;5093132;28;20478;-70
2022/01/18 12:04:46;;;;;;;5.00;4.70;;;;;;;;;;5091863;28;20441;-70
2022/01/18 12:07:32;;;;;;;4.93;4.40;;;;;;;;;;5093117;28;20480;-71
2022/01/18 12:09:58;;;;;;;5.13;4.73;;;;;;;;;;5092861;28;20477;-70
2022/01/18 12:12:44;;;;;;;4.37;3.87;;;;;;;;;;5092996;28;20498;-69
2022/01/18 12:15:16;;;;;;;4.10;4.00;;;;;;;;;;5092909;28;20466;-75
2022/01/18 12:17:49;;;;;;;4.50;4.30;;;;;;;;;;5091595;28;20515;-72
2022/01/18 12:20:45;;;;;;;5.27;5.07;;;;;;;;;;5093001;28;20937;-73
2022/01/18 12:23:17;;;;;;;5.77;5.30;;;;;;;;;;5087321;28;20444;-71
2022/01/18 12:25:55;;;;;;;4.17;3.87;;;;;;;;;;5097045;28;20479;-73
2022/01/18 12:28:35;;;;;;;3.80;3.70;;;;;;;;;;5096562;28;20424;-71
2022/01/18 12:31:17;;;;;;;5.40;5.10;;;;;;;;;;5096461;28;20448;-71
2022/01/18 12:33:44;;;;;;;4.43;4.30;;;;;;;;;;5096557;28;20428;-68
2022/01/18 12:36:31;;;;;;;4.30;4.13;;;;;;;;;;5096391;28;20403;-71
2022/01/18 12:39:03;;;;;;;4.77;4.47;;;;;;;;;;5096464;28;20432;-70
2022/01/18 12:41:42;;;;;;;4.07;3.97;;;;;;;;;;5096253;28;20406;-71
2022/01/18 12:44:20;;;;;;;4.70;4.40;;;;;;;;;;5096497;28;20449;-71
2022/01/18 12:46:58;;;;;;;4.63;4.47;;;;;;;;;;5096501;28;20435;-71
2022/01/18 12:49:24;;;;;;;4.23;4.07;;;;;;;;;;5096965;28;20824;-71
2022/01/18 12:51:57;;;;;;;4.33;4.20;;;;;;;;;;5096125;28;20504;-72
2022/01/18 12:54:36;;;;;;;4.87;4.37;;;;;;;;;;5096092;28;20404;-72
2022/01/18 12:57:14;;;;;;;5.00;4.60;;;;;;;;;;5095733;28;20454;-70
2022/01/18 12:59:57;;;;;;;5.03;4.83;;;;;;;;;;5096121;28;20645;-79
2022/01/18 13:02:23;;;;;;;4.60;4.30;;;;;;;;;;5096217;28;20504;-73
2022/01/18 13:04:58;;;;;;;4.30;4.10;;;;;;;;;;5095937;28;20796;-76
2022/01/18 13:07:25;;;;;;;4.07;3.97;;;;;;;;;;5095813;28;20489;-74
2022/01/18 13:09:58;;;;;;;4.70;4.40;;;;;;;;;;5095755;28;20401;-74
2022/01/18 13:12:31;;;;;;;9.10;4.70;;;;;;;;;;5094283;28;20559;-69
2022/01/18 13:14:59;;;;;;;4.80;4.60;;;;;;;;;;5095646;28;20406;-75
2022/01/18 13:23:49;;;;;;;4.20;4.00;;;;;;;;;;5095462;28;20479;-76
2022/01/18 13:26:15;;;;;;;4.50;4.20;;;;;;;;;;5095464;28;20391;-75
2022/01/18 13:28:41;;;;;;;4.10;4.00;;;;;;;;;;5095366;28;20418;-77
2022/01/18 13:31:17;;;;;;;4.53;4.23;;;;;;;;;;5095263;28;20845;-77
2022/01/18 13:34:04;;;;;;;3.57;3.37;;;;;;;;;;5094149;28;20881;-79
2022/01/18 13:36:32;;;;;;;3.90;3.80;;;;;;;;;;5095421;28;20387;-77
2022/01/18 13:39:18;;;;;;;4.20;4.10;;;;;;;;;;5095290;28;20403;-75
2022/01/18 13:41:44;;;;;;;4.20;4.00;;;;;;;;;;5093838;28;20401;-75
2022/01/18 13:44:10;;;;;;;4.80;4.60;;;;;;;;;;5095030;28;20408;-76
2022/01/18 13:46:36;;;;;;;5.23;4.73;;;;;;;;;;5095089;28;20776;-76
2022/01/18 13:49:06;;;;;;;4.40;4.30;;;;;;;;;;5094936;28;20487;-75
2022/01/18 13:51:32;;;;;;;4.13;4.00;;;;;;;;;;5094811;28;20463;-75
2022/01/18 13:53:59;;;;;;;4.40;4.00;;;;;;;;;;5093496;28;20424;-77
2022/01/18 13:56:26;;;;;;;4.27;4.07;;;;;;;;;;5094793;28;20418;-77
2022/01/18 13:59:12;;;;;;;3.83;3.63;;;;;;;;;;5094837;28;20416;-77
2022/01/18 14:01:41;;;;;;;4.00;3.90;;;;;;;;;;5094558;28;20429;-77
2022/01/18 14:04:19;;;;;;;5.97;4.60;;;;;;;;;;5094845;28;20409;-76
2022/01/18 14:06:45;;;;;;;4.43;4.23;;;;;;;;;;5094805;28;20823;-77
2022/01/18 14:09:12;;;;;;;4.00;3.80;;;;;;;;;;5094618;28;20394;-76
2022/01/18 14:11:39;;;;;;;3.93;3.83;;;;;;;;;;5094429;28;20461;-76
2022/01/18 14:14:18;;;;;;;4.67;4.37;;;;;;;;;;5094773;28;20409;-77
2022/01/18 14:16:50;;;;;;;4.77;4.53;;;;;;;;;;5094679;28;20412;-77
2022/01/18 14:19:26;;;;;;;5.13;4.93;;;;;;;;;;5094629;28;20417;-77
2022/01/18 14:21:52;;;;;;;4.40;4.20;;;;;;;;;;5094452;28;20906;-73
2022/01/18 14:24:19;;;;;;;4.87;4.40;;;;;;;;;;5094351;28;20390;-76
2022/01/18 14:26:52;;;;;;;4.70;4.60;;;;;;;;;;5094332;28;20404;-74
2022/01/18 14:29:22;;;;;;;4.30;3.90;;;;;;;;;;5094194;28;20385;-75
2022/01/18 14:32:08;;;;;;;4.40;4.20;;;;;;;;;;5094334;28;20533;-76
2022/01/18 14:34:39;;;;;;;4.23;4.13;;;;;;;;;;5094080;28;20417;-76
2022/01/18 14:37:06;;;;;;;4.43;4.13;;;;;;;;;;5094402;28;20406;-74
2022/01/18 14:39:32;;;;;;;4.50;4.30;;;;;;;;;;5094098;28;20402;-75
2022/01/18 14:41:59;;;;;;;4.30;4.00;;;;;;;;;;5093961;28;20402;-76
2022/01/18 14:44:46;;;;;;;4.03;3.83;;;;;;;;;;5093688;28;20487;-72
2022/01/18 14:47:26;;;;;;;7.70;3.83;;;;;;;;;;5093825;28;20420;-76
2022/01/18 14:49:56;;;;;;;3.93;3.80;;;;;;;;;;5094163;28;20404;-75
2022/01/18 14:52:23;;;;;;;4.73;4.50;;;;;;;;;;5093848;28;21126;-74
2022/01/18 14:54:49;;;;;;;4.30;4.10;;;;;;;;;;5093827;28;20405;-74
2022/01/18 14:57:15;;;;;;;4.43;4.23;;;;;;;;;;5093824;28;20412;-73
2022/01/18 14:59:41;;;;;;;4.13;3.90;;;;;;;;;;5093679;28;20403;-70
2022/01/18 15:02:07;;;;;;;7.33;4.57;;;;;;;;;;5093907;28;20732;-75
2022/01/18 15:04:33;;;;;;;3.70;3.60;;;;;;;;;;5093964;28;20405;-76
2022/01/18 15:06:59;;;;;;;4.50;4.30;;;;;;;;;;5092458;28;20480;-73
2022/01/18 15:09:28;;;;;;;4.60;4.20;;;;;;;;;;5093678;28;20445;-76
2022/01/18 15:11:55;;;;;;;5.67;5.17;;;;;;;;;;5093627;28;20460;-76
2022/01/18 15:14:21;;;;;;;5.37;5.00;;;;;;;;;;5093685;28;20749;-76
2022/01/18 15:16:47;;;;;;;4.80;4.50;;;;;;;;;;5093610;28;20427;-75
2022/01/18 15:19:13;;;;;;;4.10;3.80;;;;;;;;;;5093533;28;20413;-75
2022/01/18 15:21:39;;;;;;;3.83;3.73;;;;;;;;;;5093796;28;20386;-74
2022/01/18 15:24:05;;;;;;;4.23;3.93;;;;;;;;;;5093555;28;20466;-75
2022/01/18 15:26:31;;;;;;;4.33;4.13;;;;;;;;;;5093383;28;20535;-76
2022/01/18 15:28:57;;;;;;;6.23;5.40;;;;;;;;;;5093605;28;20433;-76
2022/01/18 15:31:23;;;;;;;5.47;5.10;;;;;;;;;;5093111;28;20889;-73
2022/01/18 15:33:49;;;;;;;7.67;6.70;;;;;;;;;;5093604;28;20407;-75
2022/01/18 15:36:15;;;;;;;8.93;8.13;;;;;;;;;;5093411;28;20765;-76
2022/01/18 15:38:41;;;;;;;7.10;6.50;;;;;;;;;;5093732;28;20504;-76
2022/01/18 15:41:07;;;;;;;8.20;7.60;;;;;;;;;;5093273;28;20807;-73
2022/01/18 15:43:33;;;;;;;6.43;5.77;;;;;;;;;;5093320;28;20398;-76
2022/01/18 15:46:02;;;;;;;5.67;5.20;;;;;;;;;;5093356;28;20894;-75
2022/01/18 15:48:28;;;;;;;6.30;5.73;;;;;;;;;;5093283;28;20385;-72
2022/01/18 15:50:54;;;;;;;5.97;5.57;;;;;;;;;;5093363;28;20510;-74